Time;durP1;ratioP1;P1;durP2;ratioP2;P2;SDS_P1;SDS_P2;PMS_P1;PMS_P2;Temp;Humidity;BMP_temperature;BMP_pressure;BME280_temperature;BME280_humidity;BME280_pressure;Samples;Min_cycle;Max_cycle;Signal;HPM_P1;HPM_P2
2022/09/22 00:01:11;;;;;;;1.17;0.80;;;;;;;11.10;76.45;102547.88;5016628;28;20317;-90
2022/09/22 00:03:41;;;;;;;0.77;0.70;;;;;;;11.08;76.15;102550.53;5045604;28;20037;-90
2022/09/22 00:06:08;;;;;;;0.65;0.65;;;;;;;11.06;76.00;102547.06;5037142;28;20048;-90
2022/09/22 00:08:36;;;;;;;0.85;0.85;;;;;;;11.04;76.40;102540.09;5052151;28;20362;-90
2022/09/22 00:11:07;;;;;;;0.63;0.60;;;;;;;11.03;76.17;102544.50;5037684;28;20334;-90
2022/09/22 00:13:33;;;;;;;0.85;0.85;;;;;;;11.02;76.30;102536.66;5053627;28;20066;-90
2022/09/22 00:16:00;;;;;;;1.00;1.00;;;;;;;11.02;76.17;102534.03;5055507;28;20324;-90
2022/09/22 00:18:26;;;;;;;1.55;1.10;;;;;;;11.00;76.16;102531.41;5053313;28;20336;-90
2022/09/22 00:20:52;;;;;;;3.92;1.00;;;;;;;10.99;76.29;102532.31;5038223;28;20375;-90
2022/09/22 00:23:19;;;;;;;0.90;0.90;;;;;;;10.97;76.21;102531.50;5020489;28;20067;-90
2022/09/22 00:25:44;;;;;;;0.98;0.98;;;;;;;10.97;76.40;102530.59;5052451;28;20084;-90
2022/09/22 00:28:11;;;;;;;1.17;1.08;;;;;;;10.95;76.04;102528.88;5020919;28;20033;-90
2022/09/22 00:30:41;;;;;;;1.65;0.73;;;;;;;10.94;76.34;102529.75;5053711;28;20220;-90
2022/09/22 00:33:10;;;;;;;2.17;1.00;;;;;;;10.93;76.29;102521.91;5037276;28;20367;-90
2022/09/22 00:35:38;;;;;;;;;;;;;;;10.91;76.27;102524.59;5055059;28;20351;-90
2022/09/22 00:38:07;;;;;;;1.10;1.00;;;;;;;10.89;76.18;102523.72;5034134;28;19927;-90
2022/09/22 00:40:34;;;;;;;1.55;1.13;;;;;;;10.89;76.23;102528.09;5042406;28;20330;-90
2022/09/22 00:43:21;;;;;;;2.03;1.15;;;;;;;10.85;76.26;102519.41;5053713;28;20047;-90
2022/09/22 00:46:17;;;;;;;1.00;1.00;;;;;;;10.86;76.28;102522.91;5054322;28;20021;-90
2022/09/22 00:48:49;;;;;;;1.05;1.05;;;;;;;10.84;76.37;102522.94;5049708;28;20041;-90
2022/09/22 00:51:16;;;;;;;1.65;1.30;;;;;;;10.83;76.47;102521.19;5053840;28;20224;-90
2022/09/22 00:53:43;;;;;;;1.02;1.02;;;;;;;10.82;76.47;102511.59;5054903;28;20032;-90
2022/09/22 00:56:19;;;;;;;2.92;1.40;;;;;;;10.80;76.33;102515.13;5054495;28;20072;-90
2022/09/22 00:58:50;;;;;;;3.63;1.30;;;;;;;10.79;76.60;102510.78;5056657;28;20021;-90
2022/09/22 01:04:37;;;;;;;2.42;1.77;;;;;;;10.77;76.48;102513.44;5051723;28;20036;-90
2022/09/22 01:07:04;;;;;;;1.27;1.10;;;;;;;10.76;76.71;102509.06;5042151;28;20442;-90
2022/09/22 01:09:31;;;;;;;1.83;1.35;;;;;;;10.74;76.74;102503.00;5036620;28;20049;-90
2022/09/22 01:11:58;;;;;;;1.50;1.40;;;;;;;10.73;76.69;102502.13;5031549;28;20021;-90
2022/09/22 01:15:09;;;;;;;1.80;1.50;;;;;;;10.72;76.83;102510.00;5038021;28;20037;-90
2022/09/22 01:17:57;;;;;;;3.53;1.63;;;;;;;10.71;76.61;102497.78;4976254;28;20248;-90
2022/09/22 01:20:52;;;;;;;;;;;;;;;10.70;77.01;102501.31;5053566;28;20052;-90
2022/09/22 01:23:44;;;;;;;1.45;1.35;;;;;;;10.68;76.74;102501.34;5056510;28;19913;-90
2022/09/22 01:26:18;;;;;;;1.48;1.38;;;;;;;10.66;76.51;102490.00;5039949;28;20029;-90
2022/09/22 01:29:16;;;;;;;1.55;1.45;;;;;;;10.65;76.62;102493.50;5054995;28;20036;-90
2022/09/22 01:32:01;;;;;;;1.35;1.23;;;;;;;10.63;76.40;102491.81;5045993;28;20316;-90
2022/09/22 01:34:32;;;;;;;1.60;1.30;;;;;;;10.62;76.90;102483.06;5037566;28;20025;-89
2022/09/22 01:37:19;;;;;;;0.90;0.90;;;;;;;10.60;76.84;102481.38;5030628;28;20163;-90
2022/09/22 01:39:54;;;;;;;1.90;1.77;;;;;;;10.60;76.90;102478.75;5039728;28;20082;-90
2022/09/22 01:42:36;;;;;;;1.30;1.20;;;;;;;10.57;76.73;102480.53;5057679;28;20028;-90
2022/09/22 01:45:16;;;;;;;1.00;1.00;;;;;;;10.55;76.84;102474.44;5057828;28;20051;-90
2022/09/22 01:47:47;;;;;;;1.60;1.10;;;;;;;10.55;76.74;102470.94;5039610;28;20039;-90
2022/09/22 01:50:31;;;;;;;1.42;1.00;;;;;;;10.54;76.92;102472.69;5057290;28;20041;-90
2022/09/22 01:53:02;;;;;;;1.15;1.15;;;;;;;10.53;76.84;102470.09;5039791;28;20105;-90
2022/09/22 01:55:51;;;;;;;2.47;1.30;;;;;;;10.51;76.95;102462.28;5056978;28;20032;-90
2022/09/22 01:58:23;;;;;;;1.45;1.35;;;;;;;10.50;77.19;102463.16;5039244;28;20355;-90
2022/09/22 02:00:57;;;;;;;1.17;1.10;;;;;;;10.50;77.13;102454.44;5045776;28;20344;-90
2022/09/22 02:03:33;;;;;;;1.23;1.23;;;;;;;10.48;76.98;102454.47;5035849;28;20031;-90
2022/09/22 02:06:07;;;;;;;1.10;1.00;;;;;;;10.49;77.19;102450.09;5057134;28;20112;-90
2022/09/22 02:08:36;;;;;;;1.40;1.30;;;;;;;10.47;77.25;102446.63;5038012;28;20067;-90
2022/09/22 02:11:08;;;;;;;1.42;1.30;;;;;;;10.46;77.28;102444.88;5039559;28;20332;-90
2022/09/22 02:13:35;;;;;;;1.30;1.20;;;;;;;10.46;77.16;102442.25;5038801;28;20016;-90
2022/09/22 02:16:01;;;;;;;1.38;1.27;;;;;;;10.45;77.25;102441.41;5022772;28;20103;-90
2022/09/22 02:18:38;;;;;;;0.93;0.93;;;;;;;10.44;77.25;102446.66;5038598;28;20043;-90
2022/09/22 02:21:04;;;;;;;1.27;1.13;;;;;;;10.42;77.24;102446.69;5038954;28;20040;-90
2022/09/22 02:23:31;;;;;;;1.30;1.20;;;;;;;10.41;77.28;102449.34;5022424;28;20328;-90
2022/09/22 02:26:00;;;;;;;2.75;1.63;;;;;;;10.41;77.27;102438.88;5049981;28;20101;-90
2022/09/22 02:28:27;;;;;;;1.52;1.45;;;;;;;10.40;77.29;102439.75;5076231;28;20035;-90
2022/09/22 02:30:55;;;;;;;1.70;1.60;;;;;;;10.37;77.20;102433.66;5058534;28;20081;-90
2022/09/22 02:33:23;;;;;;;1.80;1.40;;;;;;;10.36;77.31;102442.41;5058749;28;20051;-90
2022/09/22 02:35:59;;;;;;;1.13;1.10;;;;;;;10.34;77.34;102441.56;5058727;28;20040;-90
2022/09/22 02:38:32;;;;;;;2.45;1.05;;;;;;;10.34;77.52;102438.06;5050158;28;20047;-89
2022/09/22 02:41:16;;;;;;;1.30;1.20;;;;;;;10.32;77.47;102435.47;5059045;28;20120;-89
2022/09/22 02:44:06;;;;;;;1.80;1.70;;;;;;;10.31;77.50;102441.59;5076389;28;20190;-90
2022/09/22 02:46:45;;;;;;;1.80;1.50;;;;;;;10.30;77.10;102438.97;5058288;28;20219;-89
2022/09/22 02:49:17;;;;;;;1.45;1.35;;;;;;;10.29;77.20;102437.25;5058259;28;20020;-89
2022/09/22 02:51:46;;;;;;;2.90;1.63;;;;;;;10.28;77.06;102435.53;5075752;28;20040;-89
2022/09/22 02:54:13;;;;;;;1.70;1.42;;;;;;;10.26;77.18;102432.03;5057824;28;20021;-88
2022/09/22 02:56:40;;;;;;;1.60;1.50;;;;;;;10.25;77.04;102427.69;5025644;28;20032;-89
2022/09/22 02:59:08;;;;;;;1.60;1.50;;;;;;;10.24;77.54;102428.56;5057971;28;20278;-88
2022/09/22 03:01:35;;;;;;;1.83;1.73;;;;;;;10.23;77.25;102429.47;5041017;28;20055;-89
2022/09/22 03:04:01;;;;;;;1.70;1.60;;;;;;;10.20;77.32;102425.13;5041423;28;20090;-89
2022/09/22 03:06:27;;;;;;;1.73;1.63;;;;;;;10.19;77.50;102431.28;5040546;28;20324;-89
2022/09/22 03:08:53;;;;;;;1.70;1.60;;;;;;;10.18;77.39;102425.16;5041262;28;20032;-89
2022/09/22 03:11:18;;;;;;;1.63;1.50;;;;;;;10.18;77.56;102425.16;5024901;28;20248;-89
2022/09/22 03:13:44;;;;;;;1.95;1.60;;;;;;;10.15;77.38;102416.47;5060628;28;20047;-89
2022/09/22 03:16:09;;;;;;;2.03;1.85;;;;;;;10.14;77.56;102415.63;5058909;28;20212;-89
2022/09/22 03:18:35;;;;;;;1.50;1.40;;;;;;;10.13;77.42;102416.53;5040653;28;20066;-89
2022/09/22 03:21:01;;;;;;;1.70;1.60;;;;;;;10.13;77.73;102410.41;5037572;28;20041;-89
2022/09/22 03:23:27;;;;;;;1.88;1.77;;;;;;;10.12;77.56;102408.69;5040398;28;20458;-88
2022/09/22 03:25:53;;;;;;;1.70;1.60;;;;;;;10.11;77.68;102414.78;5041038;28;20268;-88
2022/09/22 03:28:20;;;;;;;1.75;1.40;;;;;;;10.10;77.62;102407.84;5057312;28;20095;-89
2022/09/22 03:30:46;;;;;;;1.70;1.60;;;;;;;10.08;77.78;102401.75;5031333;28;20098;-89
2022/09/22 03:33:12;;;;;;;1.60;1.50;;;;;;;10.08;77.58;102407.84;5057782;28;20048;-89
2022/09/22 03:35:38;;;;;;;1.80;1.70;;;;;;;10.06;77.63;102399.16;5024485;28;20036;-89
2022/09/22 03:38:04;;;;;;;1.73;1.63;;;;;;;10.05;77.83;102400.03;5075192;28;20070;-89
2022/09/22 03:40:30;;;;;;;1.67;1.58;;;;;;;10.05;77.78;102401.78;5037046;28;20396;-89
2022/09/22 03:42:55;;;;;;;1.85;1.75;;;;;;;10.03;77.68;102396.56;5041229;28;20123;-89
2022/09/22 03:45:21;;;;;;;1.73;1.63;;;;;;;10.03;77.89;102403.56;5040665;28;20025;-89
2022/09/22 03:47:46;;;;;;;1.83;1.73;;;;;;;10.01;77.93;102393.13;5041344;28;20302;-89
2022/09/22 03:50:13;;;;;;;1.63;1.52;;;;;;;10.00;77.76;102401.84;5039340;28;20387;-89
2022/09/22 03:52:41;;;;;;;2.00;1.90;;;;;;;10.00;77.86;102399.22;5057647;28;20036;-89
2022/09/22 03:55:08;;;;;;;2.20;2.00;;;;;;;9.98;77.91;102396.63;5025389;28;20032;-89
2022/09/22 03:57:34;;;;;;;2.30;1.95;;;;;;;9.98;77.96;102403.63;5040892;28;20215;-89
2022/09/22 04:00:00;;;;;;;2.05;1.90;;;;;;;9.97;78.06;102404.53;5057407;28;20033;-89
2022/09/22 04:02:25;;;;;;;2.08;1.58;;;;;;;9.95;77.91;102395.81;5056642;28;20024;-89
2022/09/22 04:04:51;;;;;;;1.90;1.80;;;;;;;9.95;78.20;102399.31;5041257;28;20044;-89
2022/09/22 04:07:17;;;;;;;1.80;1.70;;;;;;;9.94;78.00;102394.94;5040910;28;20386;-88
2022/09/22 04:09:43;;;;;;;2.00;1.80;;;;;;;9.93;78.33;102390.59;5024303;28;20029;-89
2022/09/22 04:12:09;;;;;;;2.17;1.95;;;;;;;9.92;78.34;102388.88;5040876;28;20147;-89
2022/09/22 04:14:34;;;;;;;1.98;1.88;;;;;;;9.91;78.09;102394.13;5039503;28;20040;-89
2022/09/22 04:17:01;;;;;;;2.22;2.03;;;;;;;9.90;78.34;102395.88;5041493;28;20199;-89
2022/09/22 04:19:26;;;;;;;2.25;2.05;;;;;;;9.89;78.58;102394.13;5023924;28;20248;-89
2022/09/22 04:21:52;;;;;;;1.90;1.80;;;;;;;9.88;78.54;102384.56;5057646;28;20220;-88
2022/09/22 04:24:18;;;;;;;1.90;1.80;;;;;;;9.86;78.56;102386.34;5056576;28;20044;-88
2022/09/22 04:26:43;;;;;;;2.45;2.17;;;;;;;9.86;78.47;102388.97;5032906;28;20510;-89
2022/09/22 04:29:09;;;;;;;2.00;1.90;;;;;;;9.86;78.41;102386.34;5024284;28;20043;-89
2022/09/22 04:31:35;;;;;;;2.60;2.40;;;;;;;9.86;78.50;102380.22;5043112;28;20070;-89
2022/09/22 04:34:01;;;;;;;2.38;2.17;;;;;;;9.83;78.60;102389.00;5059229;28;20052;-89
2022/09/22 04:36:26;;;;;;;2.38;2.22;;;;;;;9.84;78.32;102387.22;5060366;28;20075;-88
2022/09/22 04:38:54;;;;;;;2.10;2.00;;;;;;;9.82;78.38;102383.78;5061250;28;20040;-89
2022/09/22 04:41:19;;;;;;;1.88;1.73;;;;;;;9.81;78.74;102377.69;5060736;28;20431;-89
2022/09/22 04:43:45;;;;;;;2.28;2.17;;;;;;;9.79;78.68;102382.94;5024415;28;20243;-89
2022/09/22 04:46:10;;;;;;;2.58;2.38;;;;;;;9.78;78.79;102381.19;5074599;28;20221;-89
2022/09/22 04:48:36;;;;;;;2.70;2.20;;;;;;;9.77;78.72;102387.31;5043041;28;20055;-89
2022/09/22 04:51:01;;;;;;;2.70;2.50;;;;;;;9.77;78.73;102378.63;5060693;28;20028;-89
2022/09/22 04:53:27;;;;;;;2.80;2.33;;;;;;;9.76;78.64;102377.72;5039731;28;20040;-89
2022/09/22 04:55:52;;;;;;;3.00;2.70;;;;;;;9.74;78.83;102381.25;5043716;28;20044;-88
2022/09/22 04:58:18;;;;;;;3.15;2.95;;;;;;;9.73;78.88;102372.56;5044189;28;20036;-89
2022/09/22 05:00:45;;;;;;;2.80;2.60;;;;;;;9.73;78.89;102379.50;5060529;28;20462;-89
2022/09/22 05:03:14;;;;;;;2.63;2.42;;;;;;;9.71;79.13;102376.91;5043807;28;20047;-89
2022/09/22 05:05:39;;;;;;;3.00;2.70;;;;;;;9.72;79.15;102388.25;5077056;28;20033;-89
2022/09/22 05:08:05;;;;;;;2.33;2.20;;;;;;;9.72;79.20;102383.88;5059685;28;20047;-89
2022/09/22 05:10:34;;;;;;;2.53;2.33;;;;;;;9.70;79.30;102382.19;5043276;28;20036;-89
2022/09/22 05:12:59;;;;;;;2.63;2.38;;;;;;;9.71;79.25;102386.53;5044348;28;20327;-89
2022/09/22 05:15:26;;;;;;;2.63;2.42;;;;;;;9.70;79.51;102383.03;5076203;28;20052;-89
2022/09/22 05:17:52;;;;;;;2.50;2.30;;;;;;;9.70;79.55;102387.41;5042408;28;20032;-89
2022/09/22 05:20:20;;;;;;;2.90;2.70;;;;;;;9.68;79.64;102379.59;5041821;28;20037;-89
2022/09/22 05:22:46;;;;;;;2.65;2.45;;;;;;;9.69;79.75;102388.28;5058673;28;20040;-89
2022/09/22 05:25:15;;;;;;;2.60;2.40;;;;;;;9.68;79.80;102381.31;5057954;28;20052;-89
2022/09/22 05:27:46;;;;;;;2.08;1.98;;;;;;;9.67;79.87;102379.59;5075767;28;20518;-89
2022/09/22 05:30:13;;;;;;;2.90;2.70;;;;;;;9.67;79.91;102385.69;5058070;28;20412;-89
2022/09/22 05:32:43;;;;;;;2.78;2.58;;;;;;;9.66;79.92;102383.09;5071287;28;20067;-89
2022/09/22 05:35:09;;;;;;;2.20;2.10;;;;;;;9.66;79.88;102389.22;5075538;28;20332;-89
2022/09/22 05:37:35;;;;;;;3.15;2.95;;;;;;;9.64;79.98;102388.38;5024780;28;20315;-89
2022/09/22 05:40:01;;;;;;;2.38;2.17;;;;;;;9.65;79.77;102386.59;5025007;28;20063;-89
2022/09/22 05:42:26;;;;;;;2.60;2.40;;;;;;;9.64;79.85;102390.09;5025647;28;20115;-89
2022/09/22 05:44:52;;;;;;;2.53;2.33;;;;;;;9.63;80.07;102391.00;5041990;28;20265;-89
2022/09/22 05:47:18;;;;;;;2.30;2.10;;;;;;;9.62;80.02;102390.09;5038281;28;20052;-89
2022/09/22 05:49:45;;;;;;;2.70;2.50;;;;;;;9.61;80.26;102388.41;5057103;28;20415;-89
2022/09/22 05:52:11;;;;;;;2.00;1.90;;;;;;;9.60;79.94;102392.78;5057547;28;20040;-89
2022/09/22 05:54:38;;;;;;;2.60;2.40;;;;;;;9.59;80.02;102388.41;5041626;28;20419;-89
2022/09/22 05:57:04;;;;;;;2.20;2.10;;;;;;;9.59;80.12;102392.78;5041486;28;20115;-89
2022/09/22 05:59:30;;;;;;;2.28;2.17;;;;;;;9.59;80.29;102388.41;5037829;28;20052;-89
2022/09/22 06:01:56;;;;;;;2.33;2.20;;;;;;;9.58;80.06;102386.66;5033866;28;20247;-89
2022/09/22 06:04:22;;;;;;;2.65;2.45;;;;;;;9.58;80.33;102393.66;5039911;28;20048;-89
2022/09/22 06:06:49;;;;;;;2.72;2.53;;;;;;;9.57;80.24;102384.94;5055019;28;20047;-89
2022/09/22 06:09:14;;;;;;;2.00;1.90;;;;;;;9.56;80.18;102384.97;5030546;28;20044;-88
2022/09/22 06:12:07;;;;;;;2.90;2.70;;;;;;;9.57;80.28;102386.69;5020070;28;20048;-89
2022/09/22 06:14:49;;;;;;;4.28;2.90;;;;;;;9.56;80.40;102382.34;5054757;28;20045;-89
2022/09/22 06:17:25;;;;;;;3.03;2.70;;;;;;;9.56;80.44;102384.97;5047239;28;20032;-89
2022/09/22 06:20:08;;;;;;;2.78;2.55;;;;;;;9.56;80.74;102384.97;5071381;28;20425;-90
2022/09/22 06:23:00;;;;;;;2.70;2.50;;;;;;;9.56;80.75;102387.56;5068995;28;20388;-89
2022/09/22 06:25:43;;;;;;;3.45;3.15;;;;;;;9.56;81.04;102384.97;5063631;28;20442;-89
2022/09/22 06:28:22;;;;;;;3.58;3.38;;;;;;;9.57;81.21;102373.63;5056767;28;20386;-89
2022/09/22 06:30:55;;;;;;;3.33;3.13;;;;;;;9.56;81.29;102379.72;5064317;28;20035;-89
2022/09/22 06:33:47;;;;;;;3.65;3.35;;;;;;;9.56;81.48;102379.72;5061859;28;20037;-89
2022/09/22 06:36:29;;;;;;;4.80;4.38;;;;;;;9.56;81.64;102377.97;5058356;28;20046;-89
2022/09/22 06:38:57;;;;;;;;;;;;;;;9.57;81.68;102384.09;5056121;28;20036;-89
2022/09/22 06:41:26;;;;;;;4.38;4.07;;;;;;;9.58;81.81;102383.19;5023370;28;20181;-89
2022/09/22 06:44:18;;;;;;;4.30;4.00;;;;;;;9.58;82.12;102377.97;5052788;28;20210;-89
2022/09/22 06:47:07;;;;;;;;;;;;;;;9.59;82.12;102374.47;5054945;28;20100;-89
2022/09/22 06:49:38;;;;;;;;;;;;;;;9.59;82.47;102377.09;5042201;28;19916;-89
2022/09/22 06:52:13;;;;;;;4.43;4.05;;;;;;;9.59;82.56;102374.47;5040629;28;19947;-89
2022/09/22 06:55:18;;;;;;;4.47;4.18;;;;;;;9.58;82.72;102376.19;5057620;28;20047;-89
2022/09/22 06:57:54;;;;;;;7.55;6.68;;;;;;;9.58;82.77;102368.34;5041192;28;20368;-89
2022/09/22 07:00:34;;;;;;;7.53;6.70;;;;;;;9.60;83.16;102366.63;5048817;28;20044;-89
2022/09/22 07:03:27;;;;;;;7.40;6.75;;;;;;;9.60;83.17;102368.34;5057758;28;20345;-89
2022/09/22 07:06:07;;;;;;;14.70;10.27;;;;;;;9.61;84.11;102364.84;5062907;28;20267;-89
2022/09/22 07:08:57;;;;;;;9.77;8.73;;;;;;;9.64;84.48;102363.94;5057169;28;20306;-89
2022/09/22 07:11:48;;;;;;;10.60;8.90;;;;;;;9.66;84.67;102373.50;5057077;28;20036;-89
2022/09/22 07:14:21;;;;;;;9.10;8.25;;;;;;;9.68;84.65;102369.13;5043707;28;20103;-89
2022/09/22 07:16:47;;;;;;;12.75;9.57;;;;;;;9.70;84.99;102363.88;5051901;28;20525;-89
2022/09/22 07:19:14;;;;;;;21.23;13.55;;;;;;;9.71;85.75;102363.84;5038317;28;20025;-89
2022/09/22 07:21:39;;;;;;;12.55;11.30;;;;;;;9.74;86.31;102358.56;5036210;28;20037;-89
2022/09/22 07:24:07;;;;;;;14.07;12.40;;;;;;;9.75;86.09;102359.41;5035576;28;20064;-89
2022/09/22 07:26:36;;;;;;;13.15;10.88;;;;;;;9.76;86.28;102354.19;5017497;28;20069;-89
2022/09/22 07:29:10;;;;;;;12.77;11.48;;;;;;;9.79;86.29;102363.75;5033002;28;20025;-89
2022/09/22 07:31:36;;;;;;;12.35;10.40;;;;;;;9.80;86.17;102363.75;5044519;28;20037;-89
2022/09/22 07:34:02;;;;;;;12.23;11.02;;;;;;;9.84;86.62;102361.06;5024791;28;20045;-89
2022/09/22 07:36:30;;;;;;;12.27;11.00;;;;;;;9.85;86.40;102362.81;5041676;28;20110;-89
2022/09/22 07:39:02;;;;;;;14.13;11.57;;;;;;;9.87;86.62;102363.66;5033943;28;20101;-90
2022/09/22 07:41:30;;;;;;;12.65;10.70;;;;;;;9.89;86.92;102361.88;5031405;28;20339;-89
2022/09/22 07:46:45;;;;;;;16.05;13.07;;;;;;;9.93;86.98;102361.81;5006774;28;20098;-90
2022/09/22 07:49:13;;;;;;;11.40;10.05;;;;;;;9.94;87.14;102358.31;5023124;28;20256;-89
2022/09/22 07:51:39;;;;;;;;;;;;;;;9.96;87.40;102356.53;5040612;28;20509;-89
2022/09/22 07:54:06;;;;;;;19.58;14.60;;;;;;;9.98;87.35;102348.66;5046904;28;19912;-89
2022/09/22 07:56:40;;;;;;;13.55;12.15;;;;;;;10.01;87.42;102353.84;5033212;28;20407;-89
2022/09/22 07:59:10;;;;;;;14.00;12.57;;;;;;;10.02;87.33;102352.09;5044156;28;20720;-89
2022/09/22 08:01:42;;;;;;;18.77;14.40;;;;;;;10.04;87.71;102351.22;5048767;28;20045;-89
2022/09/22 08:04:15;;;;;;;14.25;12.75;;;;;;;10.06;88.06;102348.53;5045370;28;20052;-89
2022/09/22 08:06:47;;;;;;;19.00;15.35;;;;;;;10.08;88.10;102349.41;5037134;28;20033;-90
2022/09/22 08:09:14;;;;;;;15.43;13.30;;;;;;;10.09;88.19;102346.75;5027610;28;20033;-89
2022/09/22 08:11:47;;;;;;;17.05;12.45;;;;;;;10.11;88.35;102350.19;5042534;28;20060;-89
2022/09/22 08:14:13;;;;;;;24.58;15.95;;;;;;;10.14;88.36;102342.31;5037517;28;20032;-90
2022/09/22 08:16:40;;;;;;;19.73;15.00;;;;;;;10.18;88.60;102338.75;5051167;28;20040;-90
2022/09/22 08:19:11;;;;;;;26.60;18.40;;;;;;;10.22;88.82;102343.94;5038747;28;20060;-90
2022/09/22 08:21:38;;;;;;;26.65;18.23;;;;;;;10.26;89.01;102337.78;5055200;28;20112;-89
2022/09/22 08:24:08;;;;;;;21.75;18.10;;;;;;;10.27;88.95;102340.38;5030330;28;20033;-90
2022/09/22 08:26:37;;;;;;;24.77;17.45;;;;;;;10.30;89.29;102340.34;5049206;28;20052;-89
2022/09/22 08:29:05;;;;;;;23.50;17.67;;;;;;;10.34;89.35;102330.72;5038938;28;20047;-89
2022/09/22 08:31:31;;;;;;;21.55;16.38;;;;;;;10.35;89.85;102333.31;5053328;28;20144;-89
2022/09/22 08:33:57;;;;;;;18.77;15.40;;;;;;;10.38;89.18;102335.00;5039051;28;20037;-90
2022/09/22 08:36:26;;;;;;;27.63;16.92;;;;;;;10.42;89.62;102338.44;5036391;28;20320;-89
2022/09/22 08:38:53;;;;;;;;;;;;;;;10.45;90.12;102341.00;5055267;28;20351;-89
2022/09/22 08:41:50;;;;;;;21.27;16.00;;;;;;;10.48;90.04;102336.59;5066432;28;19939;-89
2022/09/22 08:44:24;;;;;;;24.40;16.70;;;;;;;10.50;89.83;102333.94;5053564;28;20041;-90
2022/09/22 08:46:53;;;;;;;26.55;16.77;;;;;;;10.55;89.86;102335.59;5048295;28;20053;-89
2022/09/22 08:52:37;;;;;;;20.95;16.38;;;;;;;10.67;89.22;102328.41;5051051;28;20067;-90
2022/09/22 08:55:04;;;;;;;29.85;15.98;;;;;;;10.71;89.38;102325.72;5045851;28;20042;-90
2022/09/22 08:58:07;;;;;;;23.13;14.82;;;;;;;10.78;88.63;102330.84;5051668;28;20033;-89
2022/09/22 09:01:14;;;;;;;21.38;14.85;;;;;;;10.83;88.32;102323.78;5049440;28;20025;-90
2022/09/22 09:04:12;;;;;;;24.13;15.13;;;;;;;10.88;88.52;102328.03;5047382;28;20046;-90
2022/09/22 09:07:22;;;;;;;17.15;13.70;;;;;;;10.93;88.54;102323.59;5043906;28;20294;-89
2022/09/22 09:10:02;;;;;;;19.90;13.95;;;;;;;10.99;88.33;102322.59;5037100;28;20029;-89
2022/09/22 09:13:13;;;;;;;18.75;13.02;;;;;;;11.04;88.04;102325.13;5052657;28;20148;-89
2022/09/22 09:16:26;;;;;;;15.05;11.30;;;;;;;11.10;87.44;102335.50;5038686;28;20072;-89
2022/09/22 09:19:05;;;;;;;14.30;10.57;;;;;;;11.13;86.79;102328.44;5040831;28;20205;-90
2022/09/22 09:21:36;;;;;;;14.00;10.68;;;;;;;11.19;85.70;102337.06;5051670;28;20045;-90
2022/09/22 09:24:09;;;;;;;16.80;11.10;;;;;;;11.23;85.22;102338.75;5033265;28;20106;-90
2022/09/22 09:26:35;;;;;;;18.17;10.23;;;;;;;11.29;85.09;102336.88;5031842;28;20096;-90
2022/09/22 09:29:05;;;;;;;16.55;10.27;;;;;;;11.34;85.01;102336.78;5041940;28;20050;-90
2022/09/22 09:31:42;;;;;;;13.77;10.20;;;;;;;11.40;85.09;102334.03;5055334;28;20306;-90
2022/09/22 09:34:13;;;;;;;20.55;10.52;;;;;;;11.44;84.29;102334.81;5022975;28;20029;-90
2022/09/22 09:36:45;;;;;;;20.25;10.07;;;;;;;11.50;84.28;102332.09;5050257;28;20083;-90
2022/09/22 09:39:26;;;;;;;17.90;8.90;;;;;;;11.55;82.77;102332.88;5037426;28;20067;-90
2022/09/22 09:41:54;;;;;;;16.20;8.98;;;;;;;11.60;83.86;102328.38;5036243;28;20051;-89
2022/09/22 09:44:28;;;;;;;10.27;9.18;;;;;;;11.67;84.11;102329.97;5004421;28;20038;-89
2022/09/22 09:47:39;;;;;;;11.00;8.38;;;;;;;11.72;83.68;102333.34;5043331;28;20031;-89
2022/09/22 09:50:05;;;;;;;14.80;8.25;;;;;;;11.78;83.23;102329.72;5048746;28;20400;-89
2022/09/22 09:52:35;;;;;;;13.73;8.85;;;;;;;11.83;82.81;102329.66;5019385;28;20029;-89
2022/09/22 09:55:01;;;;;;;11.02;8.88;;;;;;;11.89;82.79;102329.50;5038142;28;20083;-89
2022/09/22 09:57:28;;;;;;;10.20;9.10;;;;;;;11.97;83.09;102322.38;5036322;28;20041;-90
2022/09/22 10:00:32;;;;;;;11.15;8.30;;;;;;;12.05;82.60;102330.91;5004577;28;20037;-89
2022/09/22 10:03:36;;;;;;;17.08;8.00;;;;;;;12.09;80.25;102329.94;5029037;28;20228;-89
2022/09/22 10:06:09;;;;;;;14.73;7.30;;;;;;;12.17;80.91;102323.63;5028416;28;20110;-89
2022/09/22 10:08:50;;;;;;;8.70;7.82;;;;;;;12.23;81.71;102316.47;5017493;28;20045;-90
2022/09/22 10:11:29;;;;;;;9.95;7.82;;;;;;;12.29;80.71;102318.94;5003967;28;20044;-89
2022/09/22 10:14:03;;;;;;;9.48;7.15;;;;;;;12.35;80.89;102311.81;5031666;28;20099;-89
2022/09/22 10:16:38;;;;;;;6.82;6.18;;;;;;;12.41;80.75;102311.69;5029349;28;20048;-90
2022/09/22 10:19:22;;;;;;;7.00;5.07;;;;;;;12.47;81.57;102314.16;5024928;28;20109;-89
2022/09/22 10:21:51;;;;;;;6.55;4.80;;;;;;;12.51;79.63;102301.81;5030462;28;20043;-90
2022/09/22 10:24:34;;;;;;;6.63;4.63;;;;;;;12.57;78.83;102301.63;5022611;28;20040;-89
2022/09/22 10:27:05;;;;;;;5.47;4.30;;;;;;;12.64;79.89;102311.09;5044578;28;20057;-89
2022/09/22 10:30:14;;;;;;;5.57;3.42;;;;;;;12.66;78.44;102301.41;5039327;28;20028;-90
2022/09/22 10:32:53;;;;;;;2.95;2.65;;;;;;;12.73;80.13;102297.69;5047952;28;20029;-90
2022/09/22 10:36:01;;;;;;;2.70;2.50;;;;;;;12.80;78.93;102304.53;5051274;28;20027;-89
2022/09/22 10:38:52;;;;;;;5.25;3.00;;;;;;;12.83;77.91;102290.44;5049487;28;20040;-90
2022/09/22 10:41:43;;;;;;;3.00;2.13;;;;;;;12.90;77.86;102288.50;5040283;28;20040;-90
2022/09/22 10:44:25;;;;;;;2.08;1.88;;;;;;;12.95;77.95;102287.50;5050374;28;20301;-89
2022/09/22 10:47:31;;;;;;;2.30;1.95;;;;;;;12.99;75.01;102283.03;5035792;28;20040;-90
2022/09/22 10:50:30;;;;;;;4.10;2.45;;;;;;;13.04;76.43;102284.63;5027486;28;20048;-89
2022/09/22 10:53:11;;;;;;;;;;;;;;;13.09;76.16;102281.84;5051189;28;20308;-89
2022/09/22 10:56:09;;;;;;;5.95;2.40;;;;;;;13.15;75.65;102276.41;5052370;28;20300;-89
2022/09/22 10:59:13;;;;;;;4.57;1.88;;;;;;;13.22;76.25;102272.72;5050274;28;20045;-89
2022/09/22 11:01:54;;;;;;;6.15;2.20;;;;;;;13.29;77.34;102270.75;5049334;28;20033;-89
2022/09/22 11:04:47;;;;;;;6.43;2.15;;;;;;;13.35;77.92;102270.59;5050288;28;20048;-90
2022/09/22 11:13:43;;;;;;;4.85;2.47;;;;;;;13.54;76.00;102254.25;5051902;28;20228;-89
2022/09/22 11:16:35;;;;;;;9.10;2.50;;;;;;;13.61;76.19;102264.56;5052643;28;20381;-89
2022/09/22 11:19:40;;;;;;;4.90;2.30;;;;;;;13.68;76.09;102257.34;5039683;28;20025;-89
2022/09/22 11:22:30;;;;;;;4.32;2.33;;;;;;;13.75;75.87;102257.97;5052475;28;20067;-90
2022/09/22 11:25:04;;;;;;;4.63;2.22;;;;;;;13.81;76.03;102256.03;5049540;28;20351;-89
2022/09/22 11:27:55;;;;;;;4.35;2.60;;;;;;;13.87;75.02;102257.59;5066536;28;20239;-89
2022/09/22 11:30:21;;;;;;;2.53;2.33;;;;;;;13.93;75.91;102254.75;5058368;28;20044;-89
2022/09/22 11:33:18;;;;;;;2.33;2.22;;;;;;;13.99;74.50;102245.81;5051157;28;20393;-90
2022/09/22 11:36:22;;;;;;;3.28;2.40;;;;;;;14.05;74.51;102242.13;5057588;28;20104;-90
2022/09/22 11:39:17;;;;;;;4.95;2.30;;;;;;;14.13;74.09;102250.63;5053679;28;20048;-89
2022/09/22 11:42:06;;;;;;;4.85;2.90;;;;;;;14.16;72.98;102238.22;5065298;28;20037;-89
2022/09/22 11:44:54;;;;;;;5.13;2.28;;;;;;;14.25;72.35;102238.81;5041660;28;20044;-90
2022/09/22 11:47:35;;;;;;;2.40;1.88;;;;;;;14.32;74.17;102224.53;5062452;28;20075;-90
2022/09/22 11:50:23;;;;;;;3.28;1.90;;;;;;;14.38;75.13;102226.94;5075394;28;20028;-90
2022/09/22 11:53:26;;;;;;;3.00;2.37;;;;;;;14.40;71.93;102222.47;5061214;28;20028;-90
2022/09/22 11:56:14;;;;;;;5.40;2.58;;;;;;;14.44;72.21;102223.22;5072480;28;20041;-90
2022/09/22 11:59:05;;;;;;;5.20;2.15;;;;;;;14.50;73.75;102223.88;5050931;28;20247;-90
2022/09/22 12:01:57;;;;;;;4.30;2.30;;;;;;;14.54;72.87;102214.09;5065781;28;20083;-90
2022/09/22 12:04:39;;;;;;;5.97;2.58;;;;;;;14.61;72.94;102213.00;5056762;28;20323;-90
2022/09/22 12:07:34;;;;;;;2.08;1.70;;;;;;;14.66;74.99;102221.59;5051382;28;20108;-90
2022/09/22 12:10:17;;;;;;;2.70;1.67;;;;;;;14.71;72.11;102209.09;5068900;28;20305;-90
2022/09/22 12:12:47;;;;;;;2.47;1.48;;;;;;;14.75;71.85;102199.28;5060293;28;20364;-90
2022/09/22 12:15:33;;;;;;;4.28;2.05;;;;;;;14.81;73.08;102200.84;5038792;28;20037;-90
2022/09/22 12:18:09;;;;;;;2.95;1.60;;;;;;;14.83;71.62;102193.75;5045032;28;20040;-90